createdAt,value
2018-05-27T00:02:15.553Z,27.2
2018-05-27T00:12:27.632Z,34.5
2018-05-27T00:22:41.330Z,28.7
2018-05-27T00:32:55.659Z,28.2
2018-05-27T00:43:41.323Z,29.3
2018-05-27T00:55:12.439Z,29.0
2018-05-27T01:05:58.682Z,27.7
2018-05-27T01:16:13.060Z,29.2
2018-05-27T01:26:27.022Z,28.9
2018-05-27T01:37:24.130Z,28.5
2018-05-27T01:47:56.152Z,27.5
2018-05-27T01:58:10.219Z,30.8
2018-05-27T02:08:55.524Z,28.9
2018-05-27T02:19:10.107Z,28.7
2018-05-27T02:29:22.147Z,47.7
2018-05-27T02:40:07.966Z,31.1
2018-05-27T02:50:53.656Z,30.8
2018-05-27T03:01:06.204Z,28.3
2018-05-27T03:11:51.682Z,28.7
2018-05-27T03:22:37.444Z,30.4
2018-05-27T03:33:23.377Z,30.0
2018-05-27T03:44:08.885Z,31.4
2018-05-27T03:54:20.420Z,28.5
2018-05-27T04:04:34.893Z,30.9
2018-05-27T04:14:50.325Z,30.8
2018-05-27T04:25:04.652Z,28.3
2018-05-27T04:35:19.257Z,30.5
2018-05-27T04:45:33.248Z,41.9
2018-05-27T04:55:47.822Z,30.4
2018-05-27T05:06:02.806Z,32.5
2018-05-27T05:16:17.114Z,30.3
2018-05-27T05:26:31.366Z,30.7
2018-05-27T05:36:45.472Z,31.2
2018-05-27T05:46:59.907Z,36.6
2018-05-27T05:57:12.219Z,33.2
2018-05-27T06:07:26.052Z,30.0
2018-05-27T06:17:42.354Z,42.2
2018-05-27T06:27:56.395Z,30.6
2018-05-27T06:38:10.831Z,33.7
2018-05-27T06:49:57.166Z,37.5
2018-05-27T07:00:11.394Z,30.8
2018-05-27T07:10:25.683Z,33.0
2018-05-27T07:21:13.143Z,29.5
2018-05-27T07:32:55.628Z,29.7
2018-05-27T07:43:09.631Z,30.0
2018-05-27T07:55:10.374Z,29.3
2018-05-27T08:05:24.464Z,28.6
2018-05-27T08:16:55.033Z,34.0
2018-05-27T08:27:09.551Z,27.0
2018-05-27T08:38:45.848Z,23.4
2018-05-27T08:49:00.876Z,25.7
2018-05-27T08:59:13.400Z,24.0
2018-05-27T09:09:25.413Z,23.3
2018-05-27T09:20:24.886Z,23.2
2018-05-27T09:31:09.686Z,22.4
2018-05-27T09:41:55.332Z,22.2
2018-05-27T09:52:40.655Z,22.4
2018-05-27T10:02:54.627Z,23.4
2018-05-27T10:13:09.502Z,23.7
2018-05-27T10:23:23.346Z,21.0
2018-05-27T10:34:08.827Z,20.4
2018-05-27T10:45:31.541Z,20.0
2018-05-27T10:57:21.144Z,20.0
2018-05-27T11:08:06.660Z,20.5
2018-05-27T11:18:52.442Z,19.8
2018-05-27T11:29:37.365Z,18.7
2018-05-27T11:40:23.652Z,20.6
2018-05-27T11:50:38.594Z,25.7
2018-05-27T12:01:24.452Z,20.3
2018-05-27T12:12:10.141Z,20.8
2018-05-27T12:24:30.781Z,21.2
2018-05-27T12:34:43.198Z,20.5
2018-05-27T12:45:28.857Z,21.7
2018-05-27T12:57:09.424Z,21.8
2018-05-27T13:18:12.456Z,22.8
2018-05-27T13:28:26.736Z,24.6
2018-05-27T13:38:40.629Z,23.9
2018-05-27T13:49:26.509Z,22.1
2018-05-27T14:00:56.923Z,22.5
2018-05-27T14:11:12.616Z,27.3
2018-05-27T14:21:26.924Z,23.9
2018-05-27T14:31:41.942Z,23.3
2018-05-27T14:41:58.933Z,25.2
2018-05-27T14:52:16.504Z,27.3
2018-05-27T15:02:30.901Z,24.1
2018-05-27T15:12:45.436Z,25.3
2018-05-27T15:22:57.189Z,27.4
2018-05-27T15:33:11.739Z,28.6
2018-05-27T15:43:27.205Z,26.5
2018-05-27T15:53:46.443Z,29.5
2018-05-27T16:03:58.486Z,27.2
2018-05-27T16:14:14.608Z,26.8
2018-05-27T16:24:30.791Z,27.3
2018-05-27T16:34:47.152Z,28.6
2018-05-27T16:45:32.795Z,28.9
2018-05-27T16:55:47.886Z,27.2
2018-05-27T17:06:34.833Z,28.7
2018-05-27T17:16:49.880Z,28.2
2018-05-27T17:27:03.872Z,32.7
2018-05-27T17:37:59.763Z,28.7
2018-05-27T17:48:13.527Z,28.4
2018-05-27T17:58:33.844Z,30.7
2018-05-27T18:09:19.596Z,30.8
2018-05-27T18:20:06.042Z,28.3
2018-05-27T18:30:20.654Z,29.3
2018-05-27T18:55:37.580Z,27.2
2018-05-27T19:22:43.772Z,30.6
2018-05-27T19:33:38.070Z,29.5
2018-05-27T19:44:29.916Z,35.6
2018-05-27T20:06:59.777Z,32.3
2018-05-27T20:35:01.843Z,31.6
2018-05-27T21:11:48.355Z,36.5
2018-05-27T21:22:00.725Z,29.8
2018-05-27T21:32:45.915Z,34.4
2018-05-27T21:43:00.809Z,31.4
2018-05-27T21:53:15.118Z,36.5
2018-05-27T22:03:29.278Z,33.9
2018-05-27T22:13:53.849Z,32.3
2018-05-27T22:25:14.344Z,49.1
2018-05-27T22:36:01.925Z,41.2
2018-05-27T22:46:47.787Z,35.9
2018-05-27T22:57:00.109Z,33.2
2018-05-27T23:07:14.538Z,35.8
2018-05-27T23:17:31.453Z,43.3
2018-05-27T23:28:18.212Z,39.7
2018-05-27T23:39:04.912Z,39.8
2018-05-27T23:49:19.395Z,36.6
2018-05-27T23:59:34.360Z,35.0
